Time;durP1;ratioP1;P1;durP2;ratioP2;P2;SDS_P1;SDS_P2;PMS_P1;PMS_P2;Temp;Humidity;BMP_temperature;BMP_pressure;BME280_temperature;BME280_humidity;BME280_pressure;Samples;Min_cycle;Max_cycle;Signal;HPM_P1;HPM_P2
2022/08/29 00:00:16;;;;;;;1.58;1.42;;;24.40;57.80;;;;;;4996369;28;20095;-46
2022/08/29 00:02:42;;;;;;;1.33;1.23;;;24.40;57.80;;;;;;4997506;28;20046;-47
2022/08/29 00:05:08;;;;;;;1.45;1.35;;;24.50;57.80;;;;;;5004163;28;20048;-47
2022/08/29 00:07:33;;;;;;;1.27;1.17;;;24.40;57.70;;;;;;5000031;28;20069;-44
2022/08/29 00:09:59;;;;;;;1.45;1.10;;;24.40;57.80;;;;;;5002974;28;20044;-46
2022/08/29 00:12:25;;;;;;;1.52;1.23;;;24.40;57.80;;;;;;5001345;28;20042;-50
2022/08/29 00:14:50;;;;;;;1.35;1.10;;;24.40;57.90;;;;;;5002726;28;20086;-45
2022/08/29 00:17:16;;;;;;;1.35;1.20;;;24.40;57.90;;;;;;5002951;28;20499;-46
2022/08/29 00:19:41;;;;;;;1.15;1.05;;;24.40;57.90;;;;;;5002661;28;20061;-44
2022/08/29 00:22:07;;;;;;;1.17;1.08;;;24.40;57.80;;;;;;4998791;28;20034;-42
2022/08/29 00:24:32;;;;;;;1.40;1.30;;;24.40;57.90;;;;;;5006316;28;20048;-46
2022/08/29 00:27:00;;;;;;;1.30;1.20;;;24.40;57.80;;;;;;4996237;28;20041;-44
2022/08/29 00:29:26;;;;;;;0.95;0.95;;;24.40;57.80;;;;;;5002967;28;20508;-49
2022/08/29 00:31:52;;;;;;;1.00;0.90;;;24.30;57.80;;;;;;5001002;28;20084;-43
2022/08/29 00:34:17;;;;;;;1.00;0.85;;;24.30;57.90;;;;;;5004552;28;20075;-44
2022/08/29 00:36:43;;;;;;;1.10;1.00;;;24.30;57.90;;;;;;5005104;28;20111;-46
2022/08/29 00:39:08;;;;;;;1.35;1.25;;;24.30;57.90;;;;;;5005193;28;20033;-44
2022/08/29 00:41:34;;;;;;;1.10;1.00;;;24.30;57.80;;;;;;5004276;28;20524;-44
2022/08/29 00:44:00;;;;;;;1.02;0.90;;;24.30;58.00;;;;;;5003239;28;20050;-42
2022/08/29 00:46:48;;;;;;;1.02;0.90;;;24.30;58.00;;;;;;5005776;28;20057;-45
2022/08/29 00:49:35;;;;;;;1.08;0.98;;;24.20;57.90;;;;;;4999947;28;20050;-44
2022/08/29 00:52:05;;;;;;;1.60;1.20;;;24.20;58.10;;;;;;5006662;28;20049;-37
2022/08/29 00:54:30;;;;;;;0.85;0.85;;;24.20;58.00;;;;;;4996707;28;20030;-35
2022/08/29 00:56:57;;;;;;;1.05;1.00;;;24.20;58.10;;;;;;4995889;28;20099;-35
2022/08/29 00:59:28;;;;;;;1.23;1.13;;;24.20;58.20;;;;;;5012410;28;20470;-35
2022/08/29 01:01:54;;;;;;;2.50;1.17;;;24.20;58.20;;;;;;4998782;28;20137;-35
2022/08/29 01:04:20;;;;;;;1.27;1.17;;;24.10;58.20;;;;;;4999458;28;20058;-43
2022/08/29 01:06:45;;;;;;;1.40;1.02;;;24.10;58.30;;;;;;5002734;28;20130;-39
2022/08/29 01:09:11;;;;;;;1.30;1.20;;;24.10;58.10;;;;;;5000056;28;20500;-35
2022/08/29 01:14:22;;;;;;;1.10;0.93;;;24.10;58.10;;;;;;4999806;28;20166;-41
2022/08/29 01:16:47;;;;;;;1.60;0.98;;;24.10;58.30;;;;;;4997828;28;20473;-37
2022/08/29 01:19:45;;;;;;;1.15;1.05;;;24.00;58.30;;;;;;4997505;28;20120;-39
2022/08/29 01:22:29;;;;;;;1.08;1.08;;;24.00;59.20;;;;;;5003606;28;20056;-34
2022/08/29 01:24:55;;;;;;;;;;;24.00;58.50;;;;;;5005372;28;20090;-39
2022/08/29 01:27:22;;;;;;;1.08;0.95;;;24.00;58.50;;;;;;4994919;28;19922;-36
2022/08/29 01:29:48;;;;;;;1.02;0.93;;;24.00;58.20;;;;;;4999381;28;20049;-35
2022/08/29 01:32:14;;;;;;;1.27;1.20;;;24.00;58.40;;;;;;5010097;28;20446;-39
2022/08/29 01:34:40;;;;;;;0.90;0.90;;;24.00;58.30;;;;;;4999247;28;20049;-42
2022/08/29 01:37:06;;;;;;;1.30;1.20;;;24.00;58.50;;;;;;5002927;28;20504;-41
2022/08/29 01:39:33;;;;;;;1.35;0.85;;;23.90;58.40;;;;;;5001176;28;20046;-37
2022/08/29 01:42:03;;;;;;;0.93;0.93;;;24.00;58.70;;;;;;5001993;28;20415;-38
2022/08/29 01:44:28;;;;;;;1.20;1.10;;;23.90;58.60;;;;;;5000646;28;20737;-37
2022/08/29 01:46:55;;;;;;;1.15;1.00;;;23.90;58.30;;;;;;4994401;28;20099;-35
2022/08/29 01:49:21;;;;;;;1.20;1.10;;;23.90;58.60;;;;;;4999457;28;20049;-47
2022/08/29 01:51:47;;;;;;;1.52;1.10;;;23.90;58.40;;;;;;5000037;28;20046;-42
2022/08/29 01:54:13;;;;;;;1.20;1.10;;;23.90;58.90;;;;;;4999271;28;20034;-38
2022/08/29 01:56:41;;;;;;;1.10;1.10;;;23.90;58.80;;;;;;4999648;28;20511;-37
2022/08/29 01:59:09;;;;;;;1.20;1.10;;;23.90;58.90;;;;;;4999679;28;20034;-35
2022/08/29 02:01:39;;;;;;;1.20;1.10;;;23.80;58.90;;;;;;5001404;28;20057;-39
2022/08/29 02:04:05;;;;;;;1.20;0.73;;;23.80;58.70;;;;;;5003127;28;20034;-38
2022/08/29 02:06:31;;;;;;;1.30;1.20;;;23.80;58.60;;;;;;5000863;28;20056;-37
2022/08/29 02:08:57;;;;;;;1.50;1.40;;;23.80;58.80;;;;;;4997385;28;20088;-35
2022/08/29 02:11:23;;;;;;;1.42;0.90;;;23.80;58.90;;;;;;5006555;28;20038;-37
2022/08/29 02:13:51;;;;;;;0.90;0.90;;;23.70;59.70;;;;;;5000404;28;20079;-35
2022/08/29 02:16:16;;;;;;;2.63;1.30;;;23.80;58.90;;;;;;4996014;28;20056;-37
2022/08/29 02:18:42;;;;;;;1.08;1.02;;;23.80;59.10;;;;;;5002245;28;20046;-45
2022/08/29 02:21:08;;;;;;;1.40;1.30;;;23.70;58.90;;;;;;4999422;28;20042;-35
2022/08/29 02:23:35;;;;;;;1.45;0.93;;;23.70;59.30;;;;;;5000084;28;20449;-47
2022/08/29 02:26:00;;;;;;;1.02;0.93;;;23.70;59.10;;;;;;5007092;28;20048;-35
2022/08/29 02:28:26;;;;;;;1.05;1.05;;;23.70;59.30;;;;;;4994893;28;20034;-36
2022/08/29 02:30:52;;;;;;;1.10;1.00;;;23.60;59.30;;;;;;4999067;28;20105;-38
2022/08/29 02:33:18;;;;;;;1.30;1.20;;;23.60;59.10;;;;;;5003401;28;20466;-34
2022/08/29 02:35:44;;;;;;;1.20;1.10;;;23.60;59.20;;;;;;4998541;28;20054;-36
2022/08/29 02:38:10;;;;;;;1.38;1.20;;;23.60;59.10;;;;;;5002118;28;20527;-32
2022/08/29 02:40:36;;;;;;;1.10;1.00;;;23.60;59.20;;;;;;5004787;28;20074;-35
2022/08/29 02:43:02;;;;;;;1.00;1.00;;;23.60;59.70;;;;;;5004531;28;20458;-36
2022/08/29 02:45:27;;;;;;;1.30;1.20;;;23.60;59.40;;;;;;4996673;28;20076;-37
2022/08/29 02:47:53;;;;;;;1.30;1.20;;;23.50;59.80;;;;;;4998676;28;20500;-41
2022/08/29 02:50:19;;;;;;;1.25;1.15;;;23.50;59.80;;;;;;5000307;28;20102;-38
2022/08/29 02:52:44;;;;;;;1.30;1.20;;;23.50;59.90;;;;;;4997508;28;20069;-43
2022/08/29 02:55:15;;;;;;;1.02;0.95;;;23.50;59.30;;;;;;4998792;28;20064;-38
2022/08/29 02:57:41;;;;;;;1.35;1.25;;;23.50;59.70;;;;;;4999697;28;20091;-43
2022/08/29 03:00:09;;;;;;;1.85;1.27;;;23.50;60.10;;;;;;5010658;28;20038;-39
2022/08/29 03:02:34;;;;;;;0.95;0.95;;;23.50;59.50;;;;;;4998405;28;20072;-36
2022/08/29 03:05:00;;;;;;;1.15;1.13;;;23.50;59.50;;;;;;4998376;28;20567;-42
2022/08/29 03:07:25;;;;;;;1.25;1.25;;;23.50;59.40;;;;;;4998012;28;20072;-35
2022/08/29 03:09:51;;;;;;;1.05;0.95;;;23.40;60.10;;;;;;5003913;28;20435;-35
2022/08/29 03:12:17;;;;;;;1.10;1.00;;;23.50;59.60;;;;;;5001990;28;20042;-38
2022/08/29 03:14:42;;;;;;;0.88;0.88;;;23.50;59.80;;;;;;5006641;28;20056;-44
2022/08/29 03:17:08;;;;;;;1.20;1.13;;;23.50;59.70;;;;;;4999962;28;20076;-39
2022/08/29 03:19:34;;;;;;;1.10;1.08;;;23.50;59.60;;;;;;4997227;28;20054;-36
2022/08/29 03:21:59;;;;;;;1.02;1.00;;;23.50;60.60;;;;;;4996269;28;20147;-38
2022/08/29 03:24:25;;;;;;;1.20;1.05;;;23.40;60.10;;;;;;5011234;28;20044;-41
2022/08/29 03:26:51;;;;;;;0.95;0.95;;;23.40;59.80;;;;;;4997004;28;20092;-39
2022/08/29 03:29:16;;;;;;;0.82;0.82;;;23.40;59.90;;;;;;4998494;28;20669;-36
2022/08/29 03:31:42;;;;;;;0.90;0.90;;;23.40;59.90;;;;;;4995687;28;20069;-36
2022/08/29 03:34:07;;;;;;;1.17;1.17;;;23.40;60.00;;;;;;4997493;28;20042;-35
2022/08/29 03:36:33;;;;;;;0.90;0.90;;;23.40;59.90;;;;;;5007735;28;20080;-50
2022/08/29 03:38:59;;;;;;;1.08;1.00;;;23.40;60.20;;;;;;5001151;28;20053;-36
2022/08/29 03:41:26;;;;;;;0.90;0.90;;;23.40;59.70;;;;;;5004149;28;20213;-47
2022/08/29 03:43:54;;;;;;;0.90;0.88;;;23.50;59.90;;;;;;5004246;28;20423;-41
2022/08/29 03:46:19;;;;;;;1.00;1.00;;;23.50;59.40;;;;;;4994055;28;20046;-37
2022/08/29 03:48:45;;;;;;;0.90;0.90;;;23.50;60.00;;;;;;5000594;28;20095;-36
2022/08/29 03:51:11;;;;;;;0.85;0.85;;;23.40;59.10;;;;;;4999831;28;20041;-35
2022/08/29 03:53:36;;;;;;;1.00;1.00;;;23.40;59.60;;;;;;4999678;28;20413;-44
2022/08/29 03:56:03;;;;;;;0.90;0.90;;;23.40;59.50;;;;;;5000537;28;20081;-45
2022/08/29 03:58:28;;;;;;;0.75;0.70;;;23.30;59.50;;;;;;5004926;28;20045;-45
2022/08/29 04:00:54;;;;;;;0.88;0.88;;;23.40;59.70;;;;;;5000218;28;20058;-45
2022/08/29 04:03:19;;;;;;;1.20;1.10;;;23.40;59.50;;;;;;5001636;28;20042;-43
2022/08/29 04:05:45;;;;;;;0.77;0.77;;;23.40;59.80;;;;;;4995521;28;20523;-44
2022/08/29 04:08:10;;;;;;;1.40;0.90;;;23.40;59.50;;;;;;5002042;28;20511;-45
2022/08/29 04:10:37;;;;;;;1.00;1.00;;;23.40;59.80;;;;;;4996341;28;20047;-44
2022/08/29 04:13:02;;;;;;;1.52;0.82;;;23.40;60.00;;;;;;5004845;28;20424;-45
2022/08/29 04:15:29;;;;;;;0.68;0.68;;;23.40;59.40;;;;;;4999040;28;20516;-44
2022/08/29 04:17:56;;;;;;;0.90;0.90;;;23.30;59.90;;;;;;4996409;28;20517;-44
2022/08/29 04:20:23;;;;;;;1.35;1.00;;;23.30;59.90;;;;;;4998720;28;20420;-44
2022/08/29 04:22:49;;;;;;;1.00;1.00;;;23.30;59.50;;;;;;4996882;28;20393;-35
2022/08/29 04:25:15;;;;;;;1.00;0.90;;;23.40;59.80;;;;;;5004302;28;20547;-38
2022/08/29 04:27:41;;;;;;;0.70;0.70;;;23.30;59.60;;;;;;4996643;28;20500;-35
2022/08/29 04:30:09;;;;;;;1.20;1.10;;;23.30;60.10;;;;;;4997786;28;20065;-37
2022/08/29 04:32:35;;;;;;;1.00;1.00;;;23.30;59.90;;;;;;4996554;28;21777;-41
2022/08/29 04:35:00;;;;;;;0.93;0.93;;;23.30;59.70;;;;;;4998313;28;20046;-35
2022/08/29 04:37:26;;;;;;;1.00;1.00;;;23.30;60.20;;;;;;5004100;28;20096;-38
2022/08/29 04:39:53;;;;;;;1.00;1.00;;;23.40;59.30;;;;;;5001325;28;20057;-35
2022/08/29 04:42:18;;;;;;;0.90;0.90;;;23.40;59.80;;;;;;4997292;28;20145;-38
2022/08/29 04:44:45;;;;;;;0.80;0.80;;;23.40;59.60;;;;;;4999040;28;20640;-39
2022/08/29 04:47:11;;;;;;;0.93;0.93;;;23.40;59.50;;;;;;4996950;28;20042;-39
2022/08/29 04:49:36;;;;;;;0.80;0.80;;;23.40;59.30;;;;;;5000582;28;20425;-40
2022/08/29 04:52:02;;;;;;;1.13;1.08;;;23.30;59.60;;;;;;5003987;28;20042;-45
2022/08/29 04:54:28;;;;;;;1.00;1.00;;;23.30;59.80;;;;;;5000434;28;20030;-34
2022/08/29 04:56:54;;;;;;;1.05;1.00;;;23.30;59.80;;;;;;5005073;28;20153;-35
2022/08/29 04:59:19;;;;;;;0.80;0.80;;;23.30;60.20;;;;;;5000962;28;20042;-46
2022/08/29 05:01:45;;;;;;;0.93;0.93;;;23.30;59.50;;;;;;4999445;28;20045;-44
2022/08/29 05:04:11;;;;;;;1.00;1.00;;;23.30;59.90;;;;;;5005379;28;20133;-46
2022/08/29 05:06:36;;;;;;;2.05;0.90;;;23.30;59.80;;;;;;4997623;28;20508;-39
2022/08/29 05:09:02;;;;;;;0.77;0.77;;;23.30;60.10;;;;;;5001953;28;20045;-36
2022/08/29 05:11:29;;;;;;;0.88;0.88;;;23.30;59.80;;;;;;5000854;28;20042;-35
2022/08/29 05:13:54;;;;;;;1.08;1.08;;;23.30;59.80;;;;;;5006061;28;20046;-37
2022/08/29 05:16:20;;;;;;;0.95;0.90;;;23.30;59.60;;;;;;5003940;28;20053;-40
2022/08/29 05:18:45;;;;;;;0.80;0.80;;;23.30;59.80;;;;;;5002763;28;20643;-36
2022/08/29 05:21:12;;;;;;;1.10;1.00;;;23.30;59.70;;;;;;4999061;28;20042;-41
2022/08/29 05:23:39;;;;;;;0.80;0.80;;;23.30;59.30;;;;;;4990491;28;20070;-49
2022/08/29 05:26:04;;;;;;;0.93;0.80;;;23.30;59.90;;;;;;5000743;28;20038;-38
2022/08/29 05:28:31;;;;;;;1.17;1.08;;;23.20;60.20;;;;;;4994684;28;20029;-36
2022/08/29 05:30:57;;;;;;;0.98;0.98;;;23.30;60.10;;;;;;4995206;28;20029;-36
2022/08/29 05:33:22;;;;;;;0.85;0.85;;;23.30;60.20;;;;;;4999628;28;20090;-35
2022/08/29 05:35:48;;;;;;;0.95;0.95;;;23.30;60.20;;;;;;4999982;28;20042;-37
2022/08/29 05:38:14;;;;;;;0.93;0.93;;;23.30;60.20;;;;;;4996629;28;20385;-39
2022/08/29 05:40:40;;;;;;;1.02;1.02;;;23.30;60.30;;;;;;4991894;28;20508;-42
2022/08/29 05:43:05;;;;;;;1.08;0.98;;;23.30;60.70;;;;;;4991172;28;20141;-37
2022/08/29 05:45:31;;;;;;;0.90;0.90;;;23.30;60.00;;;;;;4995700;28;20105;-52
2022/08/29 05:47:57;;;;;;;0.98;0.98;;;23.30;59.80;;;;;;4993454;28;20531;-45
2022/08/29 05:50:22;;;;;;;1.23;0.90;;;23.30;59.90;;;;;;4995892;28;20539;-44
2022/08/29 05:52:48;;;;;;;1.63;0.80;;;23.30;59.80;;;;;;4996259;28;20592;-41
2022/08/29 05:55:14;;;;;;;0.98;0.88;;;23.30;59.80;;;;;;4994558;28;20083;-35
2022/08/29 05:57:39;;;;;;;0.80;0.80;;;23.30;59.80;;;;;;4995446;28;20528;-34
2022/08/29 06:00:07;;;;;;;0.70;0.70;;;23.30;59.70;;;;;;4995749;28;20092;-40
2022/08/29 06:02:32;;;;;;;0.77;0.65;;;23.30;59.70;;;;;;4992121;28;20175;-39
2022/08/29 06:04:58;;;;;;;0.80;0.80;;;23.30;59.70;;;;;;4996559;28;20046;-37
2022/08/29 06:07:24;;;;;;;1.20;1.10;;;23.30;59.70;;;;;;4996285;28;20054;-43
2022/08/29 06:09:51;;;;;;;0.80;0.80;;;23.30;59.70;;;;;;5000153;28;20042;-44
2022/08/29 06:12:17;;;;;;;0.88;0.88;;;23.30;59.80;;;;;;4995512;28;20508;-44
2022/08/29 06:14:43;;;;;;;0.88;0.88;;;23.30;59.80;;;;;;4998365;28;20126;-45
2022/08/29 06:17:08;;;;;;;1.27;0.93;;;23.20;59.70;;;;;;4993733;28;20046;-44
2022/08/29 06:19:34;;;;;;;0.88;0.88;;;23.30;59.70;;;;;;4991787;28;20399;-45
2022/08/29 06:22:02;;;;;;;1.00;0.90;;;23.30;59.70;;;;;;4996008;28;20046;-44
2022/08/29 06:24:31;;;;;;;1.20;0.80;;;23.30;59.70;;;;;;4992005;28;20531;-45
2022/08/29 06:26:57;;;;;;;0.80;0.80;;;23.30;59.60;;;;;;4994925;28;20045;-44
2022/08/29 06:29:22;;;;;;;0.90;0.90;;;23.30;59.60;;;;;;4994768;28;20046;-44
2022/08/29 06:31:48;;;;;;;1.05;1.05;;;23.30;59.50;;;;;;4991517;28;20480;-43
2022/08/29 06:34:13;;;;;;;0.90;0.90;;;23.30;59.40;;;;;;4995794;28;20084;-45
2022/08/29 06:36:39;;;;;;;0.80;0.80;;;23.30;59.60;;;;;;4995693;28;20184;-44
2022/08/29 06:39:07;;;;;;;0.70;0.70;;;23.30;59.60;;;;;;4998701;28;20053;-44
2022/08/29 06:41:33;;;;;;;0.73;0.73;;;23.20;59.50;;;;;;4999729;28;20046;-43
2022/08/29 06:43:58;;;;;;;0.68;0.68;;;23.20;59.60;;;;;;5003370;28;20038;-45
2022/08/29 06:46:26;;;;;;;0.82;0.82;;;23.30;60.00;;;;;;5007658;28;20099;-44
2022/08/29 06:48:52;;;;;;;1.52;1.10;;;23.30;59.20;;;;;;5000996;28;20089;-45
2022/08/29 06:51:18;;;;;;;0.77;0.77;;;23.30;59.10;;;;;;4995417;28;20058;-47
2022/08/29 06:53:44;;;;;;;0.93;0.93;;;23.30;59.00;;;;;;4999391;28;20542;-43
2022/08/29 06:56:09;;;;;;;1.17;0.80;;;23.40;58.80;;;;;;4994768;28;20042;-49
2022/08/29 06:58:35;;;;;;;0.95;0.95;;;23.40;59.00;;;;;;4998464;28;20417;-48
2022/08/29 07:01:08;;;;;;;1.98;1.00;;;23.40;59.00;;;;;;4999216;28;20505;-47
2022/08/29 07:03:34;;;;;;;1.10;1.10;;;23.40;59.40;;;;;;4646179;28;10000492;-50
2022/08/29 07:05:59;;;;;;;1.80;1.10;;;23.40;59.10;;;;;;4992339;28;20054;-46
2022/08/29 07:08:26;;;;;;;2.50;1.10;;;23.40;59.10;;;;;;4995727;28;20054;-47
2022/08/29 07:10:51;;;;;;;0.93;0.93;;;23.40;59.30;;;;;;4996487;28;20058;-47
2022/08/29 07:13:17;;;;;;;0.90;0.90;;;23.40;59.30;;;;;;5001949;28;20433;-46
2022/08/29 07:15:43;;;;;;;1.20;1.10;;;23.40;59.20;;;;;;5000883;28;20054;-50
2022/08/29 07:18:08;;;;;;;1.33;0.80;;;23.40;59.10;;;;;;4996195;28;20042;-44
2022/08/29 07:20:36;;;;;;;1.00;0.85;;;23.50;59.20;;;;;;4994107;28;20385;-44
2022/08/29 07:23:02;;;;;;;0.88;0.88;;;23.70;58.90;;;;;;4995688;28;20042;-46
2022/08/29 07:25:27;;;;;;;1.15;0.70;;;23.80;58.40;;;;;;5001700;28;20094;-29
2022/08/29 07:27:53;;;;;;;1.10;0.70;;;24.00;58.10;;;;;;4998927;28;20455;-45
2022/08/29 07:30:19;;;;;;;0.70;0.70;;;24.20;57.70;;;;;;4996532;28;20117;-44
2022/08/29 07:32:45;;;;;;;0.95;0.88;;;24.60;57.10;;;;;;4997804;28;20424;-43
2022/08/29 07:35:14;;;;;;;0.68;0.60;;;24.70;56.70;;;;;;5000577;28;20504;-44
2022/08/29 07:37:40;;;;;;;2.85;1.30;;;24.80;56.50;;;;;;4997866;28;20042;-45
2022/08/29 07:40:07;;;;;;;1.00;0.90;;;24.70;56.40;;;;;;5002545;28;20470;-45
2022/08/29 07:42:33;;;;;;;0.63;0.63;;;24.40;56.80;;;;;;5002492;28;20046;-45
2022/08/29 07:44:59;;;;;;;0.88;0.85;;;24.30;57.20;;;;;;4995128;28;20098;-44
2022/08/29 07:47:25;;;;;;;1.50;0.70;;;24.10;57.60;;;;;;5003011;28;20117;-49
2022/08/29 07:49:51;;;;;;;0.90;0.90;;;24.00;57.90;;;;;;4999346;28;20043;-45
2022/08/29 07:52:17;;;;;;;0.95;0.90;;;23.90;58.10;;;;;;4998919;28;20057;-46
2022/08/29 07:54:43;;;;;;;0.73;0.73;;;23.80;58.20;;;;;;4999571;28;20051;-45
2022/08/29 07:57:08;;;;;;;0.85;0.77;;;23.80;58.40;;;;;;4995076;28;20512;-48
2022/08/29 07:59:34;;;;;;;1.08;1.00;;;23.80;58.50;;;;;;4997315;28;20443;-47
2022/08/29 08:01:59;;;;;;;0.68;0.68;;;23.70;58.60;;;;;;4997808;28;20394;-46
2022/08/29 08:04:25;;;;;;;1.33;1.23;;;23.60;58.60;;;;;;5000957;28;20037;-46
2022/08/29 08:06:51;;;;;;;1.10;1.00;;;23.70;58.70;;;;;;4995582;28;20065;-47
2022/08/29 08:09:16;;;;;;;0.60;0.60;;;23.60;58.70;;;;;;4997395;28;20050;-51
2022/08/29 08:11:42;;;;;;;2.38;0.95;;;23.60;58.80;;;;;;4998398;28;20038;-50
2022/08/29 08:14:08;;;;;;;0.93;0.80;;;23.60;58.80;;;;;;4994819;28;20133;-45
2022/08/29 08:16:33;;;;;;;3.50;0.90;;;23.60;58.80;;;;;;5000393;28;20492;-48
2022/08/29 08:18:59;;;;;;;1.27;0.82;;;23.60;58.80;;;;;;4994694;28;20063;-47
2022/08/29 08:21:25;;;;;;;1.00;0.90;;;23.60;58.90;;;;;;4993595;28;20041;-54
2022/08/29 08:23:51;;;;;;;1.52;0.98;;;23.50;59.00;;;;;;4997113;28;20038;-48
2022/08/29 08:26:16;;;;;;;1.85;0.90;;;23.50;58.90;;;;;;5003955;28;20069;-44
2022/08/29 08:28:43;;;;;;;0.80;0.80;;;23.50;59.00;;;;;;5000960;28;20046;-46
2022/08/29 08:31:09;;;;;;;0.95;0.95;;;23.50;59.20;;;;;;5000587;28;20389;-46
2022/08/29 08:33:37;;;;;;;0.63;0.63;;;23.50;59.10;;;;;;5001639;28;20468;-47
2022/08/29 08:36:05;;;;;;;0.65;0.60;;;23.50;59.20;;;;;;4999099;28;20104;-45
2022/08/29 08:38:31;;;;;;;0.88;0.70;;;23.50;59.20;;;;;;5003061;28;20057;-45
2022/08/29 08:41:16;;;;;;;0.95;0.80;;;23.50;59.20;;;;;;5001122;28;20644;-56
2022/08/29 08:43:46;;;;;;;0.80;0.80;;;23.50;59.20;;;;;;5002017;28;20037;-47
2022/08/29 08:46:11;;;;;;;0.65;0.65;;;23.50;59.20;;;;;;5002009;28;20049;-51
2022/08/29 08:48:37;;;;;;;0.68;0.68;;;23.50;59.20;;;;;;5086374;28;20050;-46
2022/08/29 08:51:07;;;;;;;1.58;0.77;;;23.50;59.30;;;;;;4998760;28;20159;-45
2022/08/29 08:53:40;;;;;;;1.13;0.70;;;23.50;59.20;;;;;;4997277;28;20083;-31
2022/08/29 08:56:17;;;;;;;1.73;0.80;;;23.50;59.80;;;;;;5000942;28;20070;-46
2022/08/29 08:58:51;;;;;;;0.65;0.60;;;23.50;59.30;;;;;;4996718;28;20077;-46
2022/08/29 09:01:28;;;;;;;0.52;0.52;;;23.50;59.20;;;;;;4997832;28;20181;-46
2022/08/29 09:04:02;;;;;;;0.70;0.70;;;23.50;59.30;;;;;;5002492;28;20130;-46
2022/08/29 09:06:34;;;;;;;0.50;0.50;;;23.50;59.30;;;;;;4999625;28;20066;-47
2022/08/29 09:09:12;;;;;;;0.75;0.50;;;23.50;59.50;;;;;;5000565;28;20073;-46
2022/08/29 09:11:48;;;;;;;1.85;0.75;;;23.50;59.30;;;;;;4997286;28;20563;-46
2022/08/29 09:14:27;;;;;;;1.20;0.80;;;23.50;59.40;;;;;;5012158;28;20034;-46
2022/08/29 09:16:54;;;;;;;0.40;0.40;;;23.50;59.30;;;;;;5001406;28;20508;-46
2022/08/29 09:19:19;;;;;;;0.68;0.45;;;23.50;59.40;;;;;;4996135;28;20527;-47
2022/08/29 09:21:48;;;;;;;0.70;0.70;;;23.50;59.40;;;;;;5001677;28;20046;-46
2022/08/29 09:24:21;;;;;;;0.55;0.55;;;23.50;59.40;;;;;;4999665;28;20056;-46
2022/08/29 09:26:48;;;;;;;0.60;0.60;;;23.50;59.50;;;;;;5001499;28;20038;-45
2022/08/29 09:29:18;;;;;;;0.50;0.50;;;23.50;59.50;;;;;;5001861;28;20030;-47
2022/08/29 09:31:43;;;;;;;0.50;0.50;;;23.50;59.40;;;;;;4998082;28;20401;-47
2022/08/29 09:34:11;;;;;;;0.80;0.60;;;23.60;59.40;;;;;;5001933;28;20508;-47
2022/08/29 09:36:43;;;;;;;0.60;0.60;;;23.60;59.30;;;;;;5003908;28;20061;-44
2022/08/29 09:39:32;;;;;;;0.30;0.30;;;23.60;59.40;;;;;;5001808;28;20050;-47
2022/08/29 09:42:12;;;;;;;0.50;0.47;;;23.60;59.30;;;;;;4999186;28;20404;-47
2022/08/29 09:44:38;;;;;;;0.63;0.63;;;23.60;59.40;;;;;;4999542;28;20061;-46
2022/08/29 09:47:08;;;;;;;0.50;0.50;;;23.70;59.40;;;;;;4999149;28;20092;-47
2022/08/29 09:49:34;;;;;;;0.85;0.50;;;23.60;59.20;;;;;;5001266;28;20409;-47
2022/08/29 09:52:14;;;;;;;0.50;0.50;;;23.60;59.30;;;;;;5001005;28;20516;-47
2022/08/29 09:54:40;;;;;;;0.50;0.50;;;23.70;59.30;;;;;;4998505;28;20042;-47
2022/08/29 09:57:18;;;;;;;0.50;0.50;;;23.60;59.30;;;;;;4998010;28;20428;-46
2022/08/29 09:59:46;;;;;;;0.77;0.50;;;23.60;59.30;;;;;;4995618;28;20176;-47
2022/08/29 10:02:27;;;;;;;0.60;0.60;;;23.60;59.30;;;;;;4999452;28;20053;-52
2022/08/29 10:04:59;;;;;;;0.60;0.60;;;23.60;59.30;;;;;;5014091;28;20039;-46
2022/08/29 10:07:26;;;;;;;0.50;0.50;;;23.70;59.40;;;;;;5002791;28;20257;-46
2022/08/29 10:09:59;;;;;;;0.50;0.50;;;23.70;59.30;;;;;;4995015;28;20107;-47
2022/08/29 10:12:46;;;;;;;0.40;0.40;;;23.60;59.30;;;;;;4999742;28;20411;-47
2022/08/29 10:15:17;;;;;;;0.50;0.50;;;23.60;59.30;;;;;;4997758;28;20524;-48
2022/08/29 10:20:56;;;;;;;0.60;0.60;;;23.70;59.20;;;;;;5001273;28;20435;-19
2022/08/29 10:23:27;;;;;;;0.57;0.57;;;23.70;59.30;;;;;;5000094;28;20042;-16
2022/08/29 10:25:52;;;;;;;0.42;0.42;;;23.70;59.30;;;;;;4653629;28;10000414;-18
2022/08/29 10:28:27;;;;;;;0.65;0.65;;;23.70;59.30;;;;;;4977066;28;20520;-20
2022/08/29 10:31:03;;;;;;;0.55;0.55;;;23.70;59.30;;;;;;4995233;28;20041;-18
2022/08/29 10:34:00;;;;;;;0.43;0.43;;;23.70;59.30;;;;;;4980559;28;20072;-18
2022/08/29 10:36:32;;;;;;;0.32;0.32;;;23.60;59.30;;;;;;4999179;28;20065;-18
2022/08/29 10:39:25;;;;;;;0.57;0.57;;;23.70;59.40;;;;;;4992890;28;20045;-27
2022/08/29 10:42:22;;;;;;;0.47;0.47;;;23.70;59.40;;;;;;5012058;28;20122;-17
2022/08/29 10:44:58;;;;;;;0.60;0.50;;;23.70;59.50;;;;;;4999866;28;20050;-17
2022/08/29 10:47:25;;;;;;;0.50;0.50;;;23.60;59.40;;;;;;4999204;28;20060;-17
2022/08/29 10:50:05;;;;;;;0.60;0.50;;;23.70;59.50;;;;;;4995362;28;20152;-18
2022/08/29 10:52:52;;;;;;;0.52;0.52;;;23.70;59.50;;;;;;5001519;28;20500;-17
2022/08/29 10:55:41;;;;;;;0.70;0.70;;;23.70;59.50;;;;;;4996866;28;20424;-17
2022/08/29 10:58:09;;;;;;;0.55;0.55;;;23.60;59.40;;;;;;4998299;28;20137;-17
2022/08/29 11:00:58;;;;;;;0.55;0.50;;;23.70;59.60;;;;;;4998526;28;20046;-17
2022/08/29 11:03:40;;;;;;;0.50;0.50;;;23.60;59.50;;;;;;4997833;28;20214;-17
2022/08/29 11:06:14;;;;;;;0.50;0.50;;;23.60;59.50;;;;;;5010465;28;20042;-17
2022/08/29 11:08:50;;;;;;;0.60;0.50;;;23.70;59.70;;;;;;4996717;28;20398;-18
2022/08/29 11:11:17;;;;;;;0.70;0.47;;;23.70;59.60;;;;;;4994394;28;20085;-17
2022/08/29 11:13:55;;;;;;;0.60;0.60;;;23.70;59.60;;;;;;4999797;28;20068;-17
2022/08/29 11:16:24;;;;;;;0.60;0.60;;;23.70;59.60;;;;;;4995712;28;20045;-17
2022/08/29 11:19:01;;;;;;;0.60;0.60;;;23.70;59.60;;;;;;4992887;28;20428;-18
2022/08/29 11:21:37;;;;;;;0.60;0.60;;;23.80;59.70;;;;;;4982684;28;20098;-18
2022/08/29 11:24:04;;;;;;;0.60;0.60;;;23.70;59.70;;;;;;4994985;28;20046;-17
2022/08/29 11:26:56;;;;;;;0.70;0.70;;;23.70;59.70;;;;;;4996060;28;20524;-18
2022/08/29 11:29:33;;;;;;;0.63;0.63;;;23.70;59.70;;;;;;4991259;28;20038;-17
2022/08/29 11:32:05;;;;;;;0.68;0.68;;;23.70;59.70;;;;;;4997697;28;20049;-18
2022/08/29 11:34:57;;;;;;;0.68;0.60;;;23.70;59.70;;;;;;4993088;28;20121;-18
2022/08/29 11:37:48;;;;;;;0.57;0.57;;;23.80;59.80;;;;;;4981825;28;20034;-17
2022/08/29 11:40:18;;;;;;;0.65;0.50;;;23.80;59.80;;;;;;5005243;28;20050;-17
2022/08/29 11:42:44;;;;;;;0.68;0.68;;;23.80;59.80;;;;;;5001840;28;20034;-18
2022/08/29 11:45:12;;;;;;;0.80;0.80;;;23.80;59.80;;;;;;4999691;28;20026;-17
2022/08/29 11:47:43;;;;;;;0.60;0.60;;;23.80;59.80;;;;;;4985619;28;20038;-17
2022/08/29 11:50:14;;;;;;;1.65;0.70;;;23.80;59.80;;;;;;4999762;28;20046;-17
2022/08/29 11:53:21;;;;;;;0.60;0.60;;;23.80;59.80;;;;;;4997256;28;20034;-17
2022/08/29 11:56:12;;;;;;;0.73;0.60;;;23.80;59.80;;;;;;4984223;28;20296;-17
2022/08/29 11:58:41;;;;;;;0.60;0.60;;;23.80;59.80;;;;;;5007187;28;20095;-18
2022/08/29 12:01:11;;;;;;;0.60;0.60;;;23.80;59.90;;;;;;5002195;28;20046;-17
2022/08/29 12:03:37;;;;;;;0.60;0.60;;;23.80;59.90;;;;;;5007634;28;20038;-18
2022/08/29 12:06:22;;;;;;;0.75;0.70;;;23.80;60.00;;;;;;5007349;28;20049;-18
2022/08/29 12:09:11;;;;;;;0.70;0.70;;;23.80;59.90;;;;;;5022726;28;20056;-18
2022/08/29 12:12:02;;;;;;;0.60;0.60;;;23.80;59.90;;;;;;5004882;28;20068;-18
2022/08/29 12:14:33;;;;;;;0.77;0.77;;;23.80;59.90;;;;;;5004187;28;20043;-18
2022/08/29 12:17:02;;;;;;;0.73;0.73;;;23.80;59.90;;;;;;5003165;28;20058;-19
2022/08/29 12:19:55;;;;;;;0.80;0.80;;;23.80;59.90;;;;;;5002660;28;20099;-18
2022/08/29 12:22:52;;;;;;;1.10;1.10;;;23.90;60.10;;;;;;4999518;28;20487;-17
2022/08/29 12:25:26;;;;;;;1.25;1.17;;;23.90;60.00;;;;;;5003362;28;20038;-21
2022/08/29 12:28:01;;;;;;;1.58;1.48;;;23.90;60.00;;;;;;5005407;28;20369;-17
2022/08/29 12:30:28;;;;;;;1.80;1.70;;;23.90;60.00;;;;;;5000831;28;20141;-18
2022/08/29 12:33:19;;;;;;;2.15;1.80;;;23.90;60.80;;;;;;4991850;28;20099;-17
2022/08/29 12:36:00;;;;;;;1.67;1.58;;;23.90;60.00;;;;;;5004581;28;20148;-17
2022/08/29 12:38:50;;;;;;;1.40;1.30;;;23.90;60.00;;;;;;5000368;28;20418;-17
2022/08/29 12:42:00;;;;;;;3.15;2.00;;;23.90;60.00;;;;;;5005206;28;20053;-18
2022/08/29 12:44:40;;;;;;;2.13;2.00;;;23.90;59.90;;;;;;5004646;28;20068;-18
2022/08/29 12:47:19;;;;;;;1.90;1.80;;;23.90;60.00;;;;;;5006283;28;20427;-18
2022/08/29 12:49:50;;;;;;;2.17;1.73;;;23.90;60.00;;;;;;5009631;28;20037;-18
2022/08/29 12:52:31;;;;;;;2.28;1.70;;;23.90;60.00;;;;;;5003526;28;20046;-15
2022/08/29 12:54:58;;;;;;;2.50;2.08;;;23.90;60.00;;;;;;5003410;28;20175;-15
2022/08/29 12:57:33;;;;;;;1.80;1.70;;;23.90;60.00;;;;;;5002870;28;20081;-15
2022/08/29 12:59:59;;;;;;;1.98;1.88;;;23.90;60.00;;;;;;4999049;28;20053;-14
2022/08/29 13:02:26;;;;;;;2.35;1.92;;;23.90;60.00;;;;;;5008271;28;20038;-18
2022/08/29 13:04:52;;;;;;;1.98;1.88;;;23.90;59.90;;;;;;5004523;28;20046;-14